Time;durP1;ratioP1;P1;durP2;ratioP2;P2;SDS_P1;SDS_P2;PMS_P1;PMS_P2;Temp;Humidity;BMP_temperature;BMP_pressure;BME280_temperature;BME280_humidity;BME280_pressure;Samples;Min_cycle;Max_cycle;Signal;HPM_P1;HPM_P2
2023/10/06 00:03:06;;;;;;;;;;;;;;;11.41;96.78;102454.75;5083816;28;19936;-62
2023/10/06 00:05:34;;;;;;;;;;;;;;;11.43;98.08;102452.13;5164381;22;20367;-65
2023/10/06 00:08:00;;;;;;;;;;;;;;;11.43;97.03;102450.41;5108933;22;20010;-63
2023/10/06 00:10:28;;;;;;;;;;;;;;;11.43;97.20;102454.75;5124288;22;20011;-62
2023/10/06 00:12:58;;;;;;;;;;;;;;;11.43;97.48;102455.66;5064869;28;20489;-62
2023/10/06 00:15:28;;;;;;;;;;;;;;;11.43;97.41;102458.28;5119742;22;20290;-62
2023/10/06 00:18:00;;;;;;;;;;;;;;;11.42;97.92;102459.13;5065976;28;19959;-63
2023/10/06 00:20:39;;;;;;;;;;;;;;;11.44;97.05;102457.41;5088485;28;19927;-62
2023/10/06 00:23:12;;;;;;;;;;;;;;;11.42;97.65;102459.13;5072394;28;19936;-62
2023/10/06 00:25:42;;;;;;;;;;;;;;;11.40;97.94;102457.34;5091066;28;20260;-63
2023/10/06 00:28:14;;;;;;;;;;;;;;;11.40;97.12;102457.34;5074073;28;20001;-63
2023/10/06 00:30:39;;;;;;;;;;;;;;;11.39;97.60;102459.09;5100420;28;20371;-62
2023/10/06 00:33:05;;;;;;;;;;;;;;;11.39;98.09;102455.59;5064155;28;19921;-63
2023/10/06 00:35:31;;;;;;;;;;;;;;;11.42;97.45;102456.50;5070684;28;20323;-63
2023/10/06 00:38:04;;;;;;;;;;;;;;;11.41;98.46;102451.25;5070462;28;19916;-62
2023/10/06 00:40:29;;;;;;;;;;;;;;;11.42;97.51;102451.25;5089400;28;19916;-62
2023/10/06 00:42:59;;;;;;;;;;;;;;;11.42;97.95;102448.63;5073746;28;19931;-63
2023/10/06 00:45:25;;;;;;;;;;;;;;;11.40;97.46;102450.34;5064512;28;20371;-63
2023/10/06 00:47:53;;;;;;;;;;;;;;;11.38;98.13;102454.72;5056196;28;19924;-63
2023/10/06 00:50:22;;;;;;;;;;;;;;;11.36;98.59;102448.56;5073575;28;20352;-62
2023/10/06 00:52:47;;;;;;;;;;;;;;;11.32;97.98;102446.78;5070343;28;20362;-62
2023/10/06 00:55:14;;;;;;;;;;;;;;;11.31;98.67;102446.78;5094095;28;19916;-62
2023/10/06 01:07:16;;;;;;;;;;;;;;;11.24;99.08;102436.19;5000156;28;20659;-62
2023/10/06 01:09:56;;;;;;;;;;;;;;;11.22;98.83;102431.78;5019336;28;19929;-62
2023/10/06 01:12:21;;;;;;;;;;;;;;;11.20;99.17;102430.91;5069555;28;19919;-62
2023/10/06 01:14:51;;;;;;;;;;;;;;;11.17;99.58;102428.25;5104036;28;19941;-63
2023/10/06 01:17:17;;;;;;;;;;;;;;;11.16;100.00;102426.47;5095899;28;19950;-63
2023/10/06 01:19:48;;;;;;;;;;;;;;;11.18;99.68;102416.88;5095613;28;19967;-63
2023/10/06 01:22:30;;;;;;;;;;;;;;;11.13;99.75;102408.06;5094207;28;19919;-63
2023/10/06 01:24:58;;;;;;;;;;;;;;;11.10;99.66;102416.78;5094471;28;19923;-63
2023/10/06 01:27:26;;;;;;;;;;;;;;;11.08;100.00;102416.78;5092161;28;19928;-63
2023/10/06 01:32:41;;;;;;;;;;;;;;;11.04;99.93;102408.84;5115063;28;19918;-63
2023/10/06 01:35:12;;;;;;;;;;;;;;;11.07;100.00;102414.13;5105885;28;19920;-63
2023/10/06 01:37:37;;;;;;;;;;;;;;;11.01;100.00;102409.69;5093761;28;20322;-63
2023/10/06 01:40:15;;;;;;;;;;;;;;;11.01;100.00;102404.44;5090328;28;19969;-63
2023/10/06 01:42:41;;;;;;;;;;;;;;;10.98;100.00;102404.41;5122182;27;19961;-63
2023/10/06 01:45:15;;;;;;;;;;;;;;;10.96;100.00;102405.25;5112054;28;19915;-63
2023/10/06 01:47:40;;;;;;;;;;;;;;;10.92;100.00;102404.34;5096496;28;20015;-64
2023/10/06 01:50:06;;;;;;;;;;;;;;;10.90;100.00;102400.81;5095937;28;19950;-63
2023/10/06 01:52:31;;;;;;;;;;;;;;;10.88;100.00;102395.56;5103538;28;19915;-63
2023/10/06 01:55:03;;;;;;;;;;;;;;;10.87;100.00;102400.78;5095281;28;19927;-63
2023/10/06 01:57:28;;;;;;;;;;;;;;;10.91;100.00;102394.72;5077531;28;19924;-63
2023/10/06 01:59:53;;;;;;;;;;;;;;;10.90;100.00;102385.06;5085136;28;19927;-62
2023/10/06 02:02:23;;;;;;;;;;;;;;;10.92;100.00;102388.63;5077343;28;20053;-62
2023/10/06 02:04:52;;;;;;;;;;;;;;;10.95;100.00;102393.00;5090047;28;19924;-63
2023/10/06 02:07:18;;;;;;;;;;;;;;;10.87;100.00;102385.03;5089355;28;19950;-63
2023/10/06 02:09:44;;;;;;;;;;;;;;;10.87;100.00;102392.91;5094463;28;19926;-63
2023/10/06 02:12:09;;;;;;;;;;;;;;;10.91;100.00;102387.72;5112227;28;19912;-63
2023/10/06 02:14:35;;;;;;;;;;;;;;;10.85;100.00;102394.66;5093795;28;20010;-64
2023/10/06 02:17:05;;;;;;;;;;;;;;;10.78;100.00;102398.94;5078749;28;19930;-63
2023/10/06 02:19:32;;;;;;;;;;;;;;;10.74;100.00;102403.25;5098807;28;20378;-63
2023/10/06 02:21:58;;;;;;;;;;;;;;;10.78;100.00;102400.69;5094704;28;19931;-63
2023/10/06 02:24:23;;;;;;;;;;;;;;;10.74;100.00;102400.63;5096284;28;20278;-63
2023/10/06 02:26:59;;;;;;;;;;;;;;;10.78;100.00;102404.19;5104310;28;20023;-63
2023/10/06 02:29:24;;;;;;;;;;;;;;;10.73;100.00;102393.63;5090737;28;19928;-62
2023/10/06 02:31:50;;;;;;;;;;;;;;;10.68;100.00;102397.94;5092437;28;19923;-63
2023/10/06 02:34:21;;;;;;;;;;;;;;;10.67;100.00;102396.16;5098913;28;20278;-63
2023/10/06 02:36:46;;;;;;;;;;;;;;;10.66;100.00;102396.13;5096397;28;19973;-63
2023/10/06 02:39:15;;;;;;;;;;;;;;;10.59;100.00;102392.59;5094500;28;19955;-63
2023/10/06 02:41:41;;;;;;;;;;;;;;;10.57;100.00;102391.66;5087555;28;20343;-63
2023/10/06 02:44:15;;;;;;;;;;;;;;;10.55;100.00;102393.41;5092392;28;19919;-62
2023/10/06 02:46:44;;;;;;;;;;;;;;;10.53;100.00;102401.25;5093605;28;19924;-63
2023/10/06 02:49:11;;;;;;;;;;;;;;;10.56;100.00;102392.53;5093585;28;20133;-62
2023/10/06 02:51:47;;;;;;;;;;;;;;;10.51;100.00;102386.34;5094671;28;19915;-62
2023/10/06 02:54:22;;;;;;;;;;;;;;;10.53;100.00;102385.53;5104650;28;19923;-62
2023/10/06 02:56:50;;;;;;;;;;;;;;;10.58;100.00;102378.56;5090822;28;20053;-63
2023/10/06 02:59:25;;;;;;;;;;;;;;;10.51;100.00;102381.09;5088744;28;19929;-63
2023/10/06 03:01:52;;;;;;;;;;;;;;;10.46;100.00;102374.91;5093796;28;19927;-64
2023/10/06 03:04:18;;;;;;;;;;;;;;;10.43;100.00;102374.88;5096846;28;19927;-63
2023/10/06 03:06:53;;;;;;;;;;;;;;;10.51;100.00;102379.34;5098512;28;19920;-62
2023/10/06 03:09:18;;;;;;;;;;;;;;;10.48;100.00;102368.84;5093616;28;19916;-63
2023/10/06 03:11:49;;;;;;;;;;;;;;;10.43;100.00;102377.50;5103633;28;19916;-62
2023/10/06 03:14:15;;;;;;;;;;;;;;;10.43;100.00;102382.75;5078723;28;19919;-63
2023/10/06 03:16:42;;;;;;;;;;;;;;;10.44;100.00;102379.25;5109794;28;20007;-63
2023/10/06 03:19:12;;;;;;;;;;;;;;;10.44;100.00;102381.88;5094483;28;19922;-62
2023/10/06 03:21:39;;;;;;;;;;;;;;;10.45;100.00;102381.91;5093809;28;19919;-63
2023/10/06 03:24:06;;;;;;;;;;;;;;;10.44;100.00;102374.88;5104784;28;19934;-63
2023/10/06 03:26:34;;;;;;;;;;;;;;;10.45;100.00;102375.78;5100779;28;19938;-63
2023/10/06 03:29:11;;;;;;;;;;;;;;;10.40;100.00;102373.09;5094512;28;20030;-63
2023/10/06 03:31:45;;;;;;;;;;;;;;;10.40;100.00;102373.09;5095464;28;19963;-63
2023/10/06 03:34:17;;;;;;;;;;;;;;;10.36;100.00;102371.31;5093747;28;19924;-63
2023/10/06 03:36:51;;;;;;;;;;;;;;;10.27;100.00;102372.03;5091158;28;19973;-63
2023/10/06 03:39:27;;;;;;;;;;;;;;;10.24;100.00;102361.47;5104216;28;19999;-63
2023/10/06 03:41:59;;;;;;;;;;;;;;;10.26;100.00;102364.13;5078118;28;20260;-63
2023/10/06 03:44:26;;;;;;;;;;;;;;;10.24;100.00;102364.09;5108330;28;19919;-63
2023/10/06 03:46:52;;;;;;;;;;;;;;;10.22;100.00;102360.59;5109398;28;19924;-63
2023/10/06 03:49:18;;;;;;;;;;;;;;;10.23;100.00;102351.88;5110251;28;19999;-63
2023/10/06 03:51:44;;;;;;;;;;;;;;;10.20;100.00;102354.44;5098415;28;19977;-62
2023/10/06 03:54:10;;;;;;;;;;;;;;;10.18;100.00;102348.31;5110117;27;19919;-62
2023/10/06 03:56:35;;;;;;;;;;;;;;;10.27;100.00;102345.84;5093359;28;19920;-63
2023/10/06 03:59:00;;;;;;;;;;;;;;;10.29;100.00;102341.47;5095239;28;20341;-63
2023/10/06 04:01:26;;;;;;;;;;;;;;;10.23;100.00;102344.91;5093050;28;19927;-62
2023/10/06 04:03:58;;;;;;;;;;;;;;;10.27;100.00;102345.84;5093265;28;20267;-62
2023/10/06 04:06:27;;;;;;;;;;;;;;;10.32;100.00;102343.28;5092974;28;19999;-63
2023/10/06 04:08:53;;;;;;;;;;;;;;;10.16;100.00;102347.41;5111023;28;20067;-63
2023/10/06 04:11:18;;;;;;;;;;;;;;;10.21;100.00;102345.72;5093424;28;19920;-63
2023/10/06 04:13:44;;;;;;;;;;;;;;;10.22;100.00;102337.88;5093341;28;20016;-63
2023/10/06 04:16:09;;;;;;;;;;;;;;;10.20;100.00;102338.72;5085100;28;19924;-63
2023/10/06 04:18:34;;;;;;;;;;;;;;;10.21;100.00;102341.38;5090086;28;20019;-63
2023/10/06 04:21:00;;;;;;;;;;;;;;;10.21;100.00;102337.88;5090823;28;19920;-63
2023/10/06 04:23:25;;;;;;;;;;;;;;;10.20;100.00;102347.47;5073301;28;19921;-63
2023/10/06 04:25:56;;;;;;;;;;;;;;;10.22;100.00;102360.59;5070695;28;19916;-63
2023/10/06 04:28:22;;;;;;;;;;;;;;;10.29;100.00;102354.59;5079980;28;20015;-63
2023/10/06 04:30:48;;;;;;;;;;;;;;;10.21;100.00;102348.34;5075890;28;19920;-63
2023/10/06 04:33:14;;;;;;;;;;;;;;;10.18;100.00;102345.69;5094745;28;20015;-63
2023/10/06 04:35:42;;;;;;;;;;;;;;;10.06;100.00;102355.13;5077494;28;20340;-63
2023/10/06 04:38:10;;;;;;;;;;;;;;;10.17;100.00;102344.81;5076369;28;19920;-63
2023/10/06 04:40:35;;;;;;;;;;;;;;;10.21;100.00;102349.25;5073384;28;20007;-63
2023/10/06 04:43:01;;;;;;;;;;;;;;;10.16;100.00;102342.19;5072874;28;20312;-63
2023/10/06 04:45:27;;;;;;;;;;;;;;;10.19;100.00;102339.59;5071300;28;19924;-63
2023/10/06 04:47:55;;;;;;;;;;;;;;;10.16;100.00;102347.41;5087608;28;19932;-63
2023/10/06 04:50:24;;;;;;;;;;;;;;;10.19;100.00;102342.22;5075426;28;19921;-63
2023/10/06 04:52:50;;;;;;;;;;;;;;;10.15;100.00;102340.41;5084349;28;19939;-63
2023/10/06 04:55:16;;;;;;;;;;;;;;;10.14;100.00;102342.16;5088917;28;19920;-63
2023/10/06 04:57:41;;;;;;;;;;;;;;;10.17;100.00;102333.44;5092678;28;20355;-63
2023/10/06 05:00:13;;;;;;;;;;;;;;;10.14;100.00;102330.78;5097300;28;19966;-64
2023/10/06 05:02:44;;;;;;;;;;;;;;;10.04;100.00;102332.38;5092523;28;20331;-63
2023/10/06 05:05:11;;;;;;;;;;;;;;;10.05;100.00;102332.41;5102725;28;19922;-63
2023/10/06 05:07:37;;;;;;;;;;;;;;;10.03;100.00;102325.41;5074843;28;19920;-63
2023/10/06 05:10:03;;;;;;;;;;;;;;;9.97;100.00;102325.31;5087961;28;20014;-63
2023/10/06 05:12:32;;;;;;;;;;;;;;;9.98;100.00;102330.56;5078714;28;20455;-63
2023/10/06 05:14:57;;;;;;;;;;;;;;;10.14;100.00;102330.78;5094936;28;19920;-63
2023/10/06 05:17:22;;;;;;;;;;;;;;;10.03;100.00;102326.28;5085974;28;20439;-63
2023/10/06 05:19:48;;;;;;;;;;;;;;;10.01;100.00;102327.13;5110986;27;19919;-63
2023/10/06 05:22:14;;;;;;;;;;;;;;;9.99;100.00;102328.84;5088599;28;20394;-63
2023/10/06 05:24:40;;;;;;;;;;;;;;;10.01;100.00;102330.63;5110800;27;19920;-63
2023/10/06 05:27:05;;;;;;;;;;;;;;;10.00;100.00;102330.59;5111438;28;19923;-63
2023/10/06 05:29:35;;;;;;;;;;;;;;;9.99;100.00;102324.47;5087825;28;20277;-63
2023/10/06 05:32:01;;;;;;;;;;;;;;;10.03;100.00;102325.41;5077786;28;19928;-63
2023/10/06 05:34:29;;;;;;;;;;;;;;;10.09;100.00;102327.25;5093935;28;19920;-63
2023/10/06 05:36:54;;;;;;;;;;;;;;;10.11;100.00;102331.63;5112725;28;19939;-63
2023/10/06 05:39:20;;;;;;;;;;;;;;;10.11;100.00;102331.63;5088582;28;19935;-63
2023/10/06 05:41:46;;;;;;;;;;;;;;;10.21;100.00;102336.16;5093678;27;19927;-63
2023/10/06 05:44:12;;;;;;;;;;;;;;;10.18;100.00;102330.84;5097698;28;19974;-63
2023/10/06 05:46:37;;;;;;;;;;;;;;;10.17;100.00;102325.59;5090019;28;20379;-63
2023/10/06 05:49:04;;;;;;;;;;;;;;;10.26;100.00;102330.06;5077967;28;19924;-63
2023/10/06 05:51:33;;;;;;;;;;;;;;;10.23;100.00;102323.06;5092207;28;19971;-63
2023/10/06 05:53:58;;;;;;;;;;;;;;;10.34;100.00;102331.09;5096516;28;19933;-63
2023/10/06 05:56:26;;;;;;;;;;;;;;;10.35;100.00;102332.84;5094370;28;19923;-63
2023/10/06 05:58:52;;;;;;;;;;;;;;;10.24;100.00;102330.03;5093608;28;19938;-63
2023/10/06 06:01:21;;;;;;;;;;;;;;;10.27;100.00;102330.13;5092704;28;20355;-63
2023/10/06 06:03:46;;;;;;;;;;;;;;;10.32;100.00;102328.41;5089138;28;19947;-63
2023/10/06 06:06:14;;;;;;;;;;;;;;;10.39;100.00;102326.81;5094993;28;20053;-63
2023/10/06 06:08:40;;;;;;;;;;;;;;;10.51;100.00;102329.56;5091380;28;19920;-63
2023/10/06 06:11:06;;;;;;;;;;;;;;;10.56;100.00;102329.63;5089152;28;20363;-63
2023/10/06 06:13:33;;;;;;;;;;;;;;;10.66;100.00;102333.22;5072620;28;19920;-63
2023/10/06 06:15:59;;;;;;;;;;;;;;;10.67;100.00;102335.00;5091820;28;19920;-63
2023/10/06 06:18:27;;;;;;;;;;;;;;;10.79;100.00;102323.75;5070840;28;19920;-63
2023/10/06 06:20:53;;;;;;;;;;;;;;;10.91;100.00;102332.63;5077026;28;20954;-63
2023/10/06 06:23:20;;;;;;;;;;;;;;;10.91;100.00;102326.53;5073521;28;19916;-63
2023/10/06 06:25:45;;;;;;;;;;;;;;;11.09;100.00;102324.09;5070607;28;19970;-63
2023/10/06 06:28:14;;;;;;;;;;;;;;;11.14;100.00;102326.75;5073340;28;19928;-63
2023/10/06 06:30:40;;;;;;;;;;;;;;;11.32;100.00;102325.16;5088207;28;19936;-63
2023/10/06 06:33:12;;;;;;;;;;;;;;;11.43;100.00;102326.13;5090080;28;20326;-63
2023/10/06 06:35:37;;;;;;;;;;;;;;;11.49;100.00;102327.94;5075997;28;20359;-63
2023/10/06 06:38:04;;;;;;;;;;;;;;;11.58;99.88;102331.53;5073987;28;19923;-63
2023/10/06 06:40:32;;;;;;;;;;;;;;;11.71;99.60;102340.38;5074799;28;19916;-64
2023/10/06 06:42:59;;;;;;;;;;;;;;;12.01;98.56;102338.88;5073968;28;20313;-63
2023/10/06 06:45:25;;;;;;;;;;;;;;;12.40;98.18;102342.56;5075391;28;20652;-63
2023/10/06 06:47:50;;;;;;;;;;;;;;;12.66;95.23;102344.44;5066586;28;19924;-63
2023/10/06 06:50:17;;;;;;;;;;;;;;;12.74;95.35;102347.97;5058757;28;19947;-63
2023/10/06 06:52:43;;;;;;;;;;;;;;;12.71;94.83;102347.06;5088365;28;19924;-63
2023/10/06 06:55:14;;;;;;;;;;;;;;;12.67;94.28;102340.03;5089448;28;19919;-63
2023/10/06 06:57:43;;;;;;;;;;;;;;;12.59;94.30;102337.41;5090337;28;19916;-63
2023/10/06 07:00:15;;;;;;;;;;;;;;;12.55;94.79;102340.88;5062097;28;19927;-63
2023/10/06 07:02:44;;;;;;;;;;;;;;;12.64;94.45;102344.44;5089618;28;20113;-63
2023/10/06 07:05:10;;;;;;;;;;;;;;;12.83;93.68;102348.00;5074875;28;19912;-63
2023/10/06 07:07:36;;;;;;;;;;;;;;;12.99;92.34;102341.00;5089367;28;20351;-63
2023/10/06 07:10:06;;;;;;;;;;;;;;;13.09;92.00;102343.69;5059009;28;19955;-63
2023/10/06 07:12:31;;;;;;;;;;;;;;;13.32;90.66;102341.94;5080018;28;20000;-63
2023/10/06 07:14:57;;;;;;;;;;;;;;;13.54;90.36;102335.84;5092624;28;19947;-63
2023/10/06 07:20:00;;;;;;;;;;;;;;;13.63;89.36;102335.84;5347595;22;20389;-63
2023/10/06 07:22:29;;;;;;;;;;;;;;;13.56;89.29;102341.97;5061277;28;20089;-63
2023/10/06 07:24:56;;;;;;;;;;;;;;;13.56;89.60;102341.97;5059637;28;19959;-63
2023/10/06 07:27:21;;;;;;;;;;;;;;;13.70;90.07;102348.13;5067297;28;19924;-63
2023/10/06 07:29:51;;;;;;;;;;;;;;;14.00;89.12;102343.69;5093010;28;19920;-63
2023/10/06 07:32:16;;;;;;;;;;;;;;;14.20;87.66;102341.88;5074482;28;19969;-64
2023/10/06 07:34:41;;;;;;;;;;;;;;;14.38;86.44;102348.00;5074318;28;19931;-63
2023/10/06 07:37:07;;;;;;;;;;;;;;;14.50;85.70;102344.44;5065535;28;20253;-64
2023/10/06 07:39:33;;;;;;;;;;;;;;;14.70;85.05;102345.25;5068646;28;19985;-64
2023/10/06 07:41:58;;;;;;;;;;;;;;;15.46;83.32;102360.59;5057851;28;20362;-63
2023/10/06 07:44:25;;;;;;;;;;;;;;;16.44;80.42;102352.59;5058343;28;19916;-63
2023/10/06 07:46:52;;;;;;;;;;;;;;;17.54;74.59;102354.59;5056679;28;19924;-63
2023/10/06 07:49:17;;;;;;;;;;;;;;;18.00;76.70;102359.09;5046903;28;19916;-63
2023/10/06 07:51:45;;;;;;;;;;;;;;;17.91;76.93;102353.94;5040692;28;19928;-64
2023/10/06 07:54:10;;;;;;;;;;;;;;;17.73;77.29;102367.50;5054606;28;20318;-63
2023/10/06 07:56:36;;;;;;;;;;;;;;;17.48;77.70;102365.28;5072194;28;19920;-64
2023/10/06 07:59:01;;;;;;;;;;;;;;;17.50;77.71;102376.75;5056658;28;19924;-63
2023/10/06 08:01:27;;;;;;;;;;;;;;;17.58;76.36;102381.91;5091931;28;19948;-63
2023/10/06 08:03:53;;;;;;;;;;;;;;;17.92;79.13;102382.22;5079880;28;19916;-63
2023/10/06 08:06:20;;;;;;;;;;;;;;;18.17;77.63;102374.72;5060979;28;20360;-63
2023/10/06 08:08:48;;;;;;;;;;;;;;;18.20;77.35;102380.84;5073860;28;20336;-64
2023/10/06 08:11:13;;;;;;;;;;;;;;;18.09;74.06;102378.41;5087455;28;19962;-64
2023/10/06 08:13:40;;;;;;;;;;;;;;;17.91;75.27;102376.97;5074288;28;19912;-63
2023/10/06 08:16:06;;;;;;;;;;;;;;;17.68;77.10;102375.53;5058727;28;20318;-63
2023/10/06 08:18:32;;;;;;;;;;;;;;;17.59;76.48;102368.63;5059498;28;19928;-64
2023/10/06 08:21:00;;;;;;;;;;;;;;;17.59;76.67;102370.41;5058712;28;19942;-64
2023/10/06 08:23:26;;;;;;;;;;;;;;;17.55;77.54;102366.06;5038412;28;20294;-64
2023/10/06 08:25:56;;;;;;;;;;;;;;;17.58;77.44;102364.22;5053687;28;20011;-64
2023/10/06 08:28:21;;;;;;;;;;;;;;;17.69;75.57;102368.50;5038089;28;19924;-64
2023/10/06 08:30:46;;;;;;;;;;;;;;;18.00;74.76;102367.06;5053917;28;20015;-63
2023/10/06 08:33:12;;;;;;;;;;;;;;;18.55;73.73;102368.63;5040270;28;20368;-64
2023/10/06 08:35:40;;;;;;;;;;;;;;;19.17;72.33;102368.19;5046840;28;20012;-64
2023/10/06 08:38:07;;;;;;;;;;;;;;;20.00;68.97;102375.91;5053574;28;19921;-64
2023/10/06 08:40:34;;;;;;;;;;;;;;;21.18;65.59;102374.22;5055269;28;19971;-64
2023/10/06 08:42:59;;;;;;;;;;;;;;;22.29;62.63;102370.44;5056406;28;19917;-64
2023/10/06 08:45:28;;;;;;;;;;;;;;;21.89;63.73;102371.03;5035264;28;19929;-64
2023/10/06 08:48:01;;;;;;;;;;;;;;;21.46;65.50;102352.88;5036743;28;19935;-64
2023/10/06 08:50:31;;;;;;;;;;;;;;;20.97;66.77;102358.94;5037217;28;19975;-64
2023/10/06 08:52:57;;;;;;;;;;;;;;;20.42;68.26;102360.50;5053058;28;19996;-64
2023/10/06 08:55:25;;;;;;;;;;;;;;;20.00;68.44;102359.94;5043899;28;20385;-64
2023/10/06 08:57:52;;;;;;;;;;;;;;;19.42;71.38;102368.47;5052395;28;20030;-63
2023/10/06 09:00:18;;;;;;;;;;;;;;;19.11;72.94;102369.22;5053162;28;19917;-64
2023/10/06 09:02:48;;;;;;;;;;;;;;;18.82;73.42;102373.38;5052675;28;20291;-64
2023/10/06 09:05:16;;;;;;;;;;;;;;;18.52;73.92;102374.91;5051129;28;19920;-63
2023/10/06 09:07:57;;;;;;;;;;;;;;;18.52;74.98;102382.88;5054898;28;19974;-64
2023/10/06 09:10:23;;;;;;;;;;;;;;;18.54;74.48;102383.69;5070805;28;19912;-63
2023/10/06 09:13:02;;;;;;;;;;;;;;;18.46;75.34;102375.91;5073068;28;20053;-63
2023/10/06 09:15:28;;;;;;;;;;;;;;;18.54;74.52;102373.09;5076145;28;19919;-63
2023/10/06 09:17:53;;;;;;;;;;;;;;;18.72;74.34;102381.56;5059350;28;20030;-64
2023/10/06 09:20:37;;;;;;;;;;;;;;;18.81;73.51;102374.28;5077084;28;19975;-63
2023/10/06 09:23:03;;;;;;;;;;;;;;;18.81;72.84;102362.78;5076991;28;20382;-63
2023/10/06 09:25:50;;;;;;;;;;;;;;;18.80;71.81;102367.19;5060447;28;20014;-64
2023/10/06 09:28:17;;;;;;;;;;;;;;;18.76;73.57;102362.00;5076448;28;19916;-63
2023/10/06 09:31:01;;;;;;;;;;;;;;;18.87;74.03;102362.66;5077220;28;19912;-63
2023/10/06 09:33:28;;;;;;;;;;;;;;;19.04;73.07;102343.69;5076074;28;19986;-63
2023/10/06 09:36:06;;;;;;;;;;;;;;;19.00;71.78;102345.53;5076997;28;19939;-63
2023/10/06 09:38:32;;;;;;;;;;;;;;;19.08;73.68;102347.13;5076843;28;19912;-63
2023/10/06 09:40:58;;;;;;;;;;;;;;;19.33;72.32;102350.97;5076986;28;19970;-64
2023/10/06 09:43:25;;;;;;;;;;;;;;;19.71;70.60;102349.13;5059615;28;19920;-63
2023/10/06 09:45:51;;;;;;;;;;;;;;;20.11;68.15;102349.00;5076572;28;19919;-64
2023/10/06 09:48:21;;;;;;;;;;;;;;;20.12;68.23;102343.63;5058063;28;19920;-63
2023/10/06 09:50:50;;;;;;;;;;;;;;;19.92;69.89;102338.00;5076604;28;20379;-63
2023/10/06 09:53:16;;;;;;;;;;;;;;;19.79;71.12;102337.44;5060299;28;20418;-63
2023/10/06 09:55:42;;;;;;;;;;;;;;;19.68;69.25;102330.59;5060089;28;19923;-64
2023/10/06 09:58:08;;;;;;;;;;;;;;;19.46;71.08;102329.41;5075884;28;19918;-63
2023/10/06 10:00:38;;;;;;;;;;;;;;;19.28;71.51;102336.94;5059926;28;20384;-63
2023/10/06 10:03:04;;;;;;;;;;;;;;;19.18;72.51;102335.41;5059386;28;19923;-63
2023/10/06 10:05:29;;;;;;;;;;;;;;;19.21;73.30;102340.66;5056470;28;19916;-63
2023/10/06 10:07:55;;;;;;;;;;;;;;;19.35;72.23;102327.91;5055944;28;19925;-63
2023/10/06 10:10:23;;;;;;;;;;;;;;;19.52;72.79;102329.22;5056353;28;19942;-63
2023/10/06 10:13:11;;;;;;;;;;;;;;;19.52;71.58;102323.91;5055424;28;19920;-63
2023/10/06 10:15:37;;;;;;;;;;;;;;;19.59;72.35;102316.66;5056150;28;20007;-63
2023/10/06 10:18:25;;;;;;;;;;;;;;;19.77;72.63;102324.16;5055089;28;20017;-63
2023/10/06 10:20:52;;;;;;;;;;;;;;;20.07;71.63;102325.13;5056094;28;19955;-63
2023/10/06 10:23:17;;;;;;;;;;;;;;;20.12;69.67;102321.47;5055838;28;19912;-63
2023/10/06 10:25:44;;;;;;;;;;;;;;;19.96;70.69;102326.34;5055973;28;19912;-63
2023/10/06 10:28:13;;;;;;;;;;;;;;;19.91;70.73;102321.13;5072204;28;20333;-63
2023/10/06 10:30:50;;;;;;;;;;;;;;;19.65;70.22;102325.38;5055948;28;19916;-63
2023/10/06 10:33:22;;;;;;;;;;;;;;;19.51;71.60;102315.09;5054780;28;19919;-63
2023/10/06 10:36:18;;;;;;;;;;;;;;;19.50;71.69;102317.78;5055701;28;19913;-63
2023/10/06 10:38:44;;;;;;;;;;;;;;;19.69;71.41;102327.00;5055633;28;19916;-63
2023/10/06 10:41:10;;;;;;;;;;;;;;;19.77;70.38;102323.25;5071830;28;20237;-63
2023/10/06 10:43:45;;;;;;;;;;;;;;;19.61;70.74;102315.72;5055460;28;19927;-63
2023/10/06 10:46:12;;;;;;;;;;;;;;;19.53;70.55;102318.56;5054979;28;19944;-63
2023/10/06 10:48:37;;;;;;;;;;;;;;;19.45;70.74;102307.28;5055001;28;20019;-64
2023/10/06 10:51:10;;;;;;;;;;;;;;;19.49;70.90;102302.72;5055366;28;20110;-63
2023/10/06 10:53:37;;;;;;;;;;;;;;;19.85;70.15;102303.56;5055224;28;19913;-63
2023/10/06 10:56:03;;;;;;;;;;;;;;;19.87;69.55;102309.72;5054960;28;19912;-63
2023/10/06 10:58:44;;;;;;;;;;;;;;;19.84;69.06;102306.25;5055293;28;19933;-63
2023/10/06 11:01:27;;;;;;;;;;;;;;;19.69;70.30;102312.84;5054779;28;19936;-63
2023/10/06 11:06:52;;;;;;;;;;;;;;;19.73;71.02;102310.06;5076020;28;19916;-64
2023/10/06 11:11:56;;;;;;;;;;;;;;;20.02;69.57;102313.72;5092772;28;19912;-63
2023/10/06 11:14:25;;;;;;;;;;;;;;;20.05;69.83;102312.78;5074970;28;19912;-63
2023/10/06 11:16:50;;;;;;;;;;;;;;;20.12;69.89;102313.50;5074428;28;20430;-63
2023/10/06 11:19:16;;;;;;;;;;;;;;;19.98;68.79;102319.19;5073608;28;20035;-63
2023/10/06 11:21:44;;;;;;;;;;;;;;;19.73;69.67;102315.38;5070876;28;19959;-63
2023/10/06 11:24:10;;;;;;;;;;;;;;;19.60;70.53;102313.97;5071525;28;19912;-63
2023/10/06 11:26:36;;;;;;;;;;;;;;;19.41;70.71;102304.72;5054127;28;20294;-63
2023/10/06 11:29:02;;;;;;;;;;;;;;;19.26;71.03;102304.19;5070307;28;19916;-63
2023/10/06 11:31:27;;;;;;;;;;;;;;;19.20;71.92;102301.69;5054194;28;19920;-63
2023/10/06 11:33:54;;;;;;;;;;;;;;;19.28;71.71;102309.47;5054191;28;20394;-63
2023/10/06 11:36:20;;;;;;;;;;;;;;;19.30;72.08;102310.31;5071211;28;20093;-63
2023/10/06 11:38:46;;;;;;;;;;;;;;;19.30;70.99;102300.53;5069137;28;20266;-63
2023/10/06 11:41:11;;;;;;;;;;;;;;;19.33;71.21;102296.94;5070909;28;20378;-63
2023/10/06 11:43:36;;;;;;;;;;;;;;;19.41;71.10;102296.72;5071158;28;19916;-63
2023/10/06 11:46:07;;;;;;;;;;;;;;;19.46;71.26;102295.69;5054447;28;19924;-63
2023/10/06 11:48:35;;;;;;;;;;;;;;;19.65;71.48;102290.78;5053976;28;19925;-63
2023/10/06 11:51:08;;;;;;;;;;;;;;;19.70;69.58;102291.53;5054714;28;19920;-63
2023/10/06 11:53:35;;;;;;;;;;;;;;;19.53;70.32;102283.13;5061376;28;19920;-63
2023/10/06 11:56:04;;;;;;;;;;;;;;;19.45;70.90;102285.13;5073866;28;20015;-63
2023/10/06 11:58:30;;;;;;;;;;;;;;;19.39;71.69;102278.16;5068494;28;19955;-63
2023/10/06 12:00:55;;;;;;;;;;;;;;;19.35;71.04;102282.72;5070267;28;20438;-63
2023/10/06 12:03:31;;;;;;;;;;;;;;;19.46;71.44;102273.56;5036848;28;20023;-63
2023/10/06 12:05:57;;;;;;;;;;;;;;;19.33;71.55;102268.56;5071068;28;19912;-63
2023/10/06 12:08:22;;;;;;;;;;;;;;;19.31;72.28;102275.72;5046473;28;19970;-63
2023/10/06 12:10:51;;;;;;;;;;;;;;;19.37;72.07;102275.56;5053438;28;19982;-63
2023/10/06 12:13:17;;;;;;;;;;;;;;;19.38;72.19;102277.31;5068964;28;19920;-63
2023/10/06 12:15:44;;;;;;;;;;;;;;;19.40;71.95;102274.59;5034151;28;19913;-63
2023/10/06 12:18:10;;;;;;;;;;;;;;;19.40;71.79;102271.94;5044819;28;19920;-64
2023/10/06 12:20:35;;;;;;;;;;;;;;;19.42;72.37;102266.59;5057499;28;19974;-63
2023/10/06 12:23:01;;;;;;;;;;;;;;;19.45;71.36;102267.41;5057222;28;19927;-63
2023/10/06 12:25:27;;;;;;;;;;;;;;;19.47;72.24;102264.69;5063049;28;19963;-63
2023/10/06 12:27:52;;;;;;;;;;;;;;;19.61;71.40;102269.63;5070290;28;20360;-63
2023/10/06 12:30:18;;;;;;;;;;;;;;;19.84;71.52;102269.03;5052136;28;19939;-63
2023/10/06 12:32:45;;;;;;;;;;;;;;;20.07;71.36;102255.09;5072899;28;19920;-63
2023/10/06 12:35:12;;;;;;;;;;;;;;;20.26;70.22;102242.09;5066045;28;19924;-63
2023/10/06 12:37:43;;;;;;;;;;;;;;;20.27;71.41;102246.50;5069865;28;19912;-63
2023/10/06 12:40:09;;;;;;;;;;;;;;;20.33;71.77;102240.09;5058920;28;20265;-63
2023/10/06 12:42:38;;;;;;;;;;;;;;;20.36;71.46;102240.03;5055133;28;19963;-63
2023/10/06 12:45:05;;;;;;;;;;;;;;;20.37;70.56;102237.31;5073917;28;20333;-63
2023/10/06 12:47:31;;;;;;;;;;;;;;;20.43;71.03;102231.78;5086629;28;19924;-63
2023/10/06 12:50:03;;;;;;;;;;;;;;;20.53;71.18;102226.16;5059153;28;19916;-63
2023/10/06 12:52:28;;;;;;;;;;;;;;;20.71;69.82;102230.09;5061307;28;19924;-63
2023/10/06 12:54:53;;;;;;;;;;;;;;;20.87;69.13;102230.44;5077671;28;19939;-64
2023/10/06 12:57:19;;;;;;;;;;;;;;;21.19;69.29;102232.03;5060425;28;20045;-63
2023/10/06 12:59:44;;;;;;;;;;;;;;;22.24;63.89;102227.34;5057517;28;20372;-63